Archival Weather

Heathrow

Heathrow, United Kingdom (EGLL)

Report from: Thursday, June 23, 2022 10:50 PM BST
Current time: Tuesday, August 16, 2022 8:01 AM BST

Current weather
Weather history
Weather forecast

Temperature19.0°C (66.2°F)
Dew point14.0°C (57.2°F)
Winds 7 kts (3.6 m/s, 8.1 mph) Vrb
Winds variableWinds variable from South (170°) to West-Southwest (250°)
Visibility6.2 mi. (10 km)
Clouds Sky clear
Altimeter29.74 in.Hg (1007 mB)
Relative humidity73 %
Density altitude902 ft. (275 m)
Remarks Fully automated report
No clouds detected
No significant changes expected in the next two hours
Flight conditions Visual Meteorological Conditions
Raw dataEGLL 232150Z AUTO 21007KT 170V250 9999 NCD 19/14 Q1007 NOSIG
An error has occurred. This application may no longer respond until reloaded. Reload 🗙